Flight Track Log - Related Links

Times and Time Zones

All times are in EDT time to prevent confusion due to time zone crossing. See the N97MC flight status page for this flight to view local times or setup timezone preferences in your user account.

Time Position Orientation Groundspeed Altitude Reporting Facility
EDT Latitude Longitude Course Direction KTS MPH feet Rate Location/Type
Mon 11:46:18 AM 28.5333 -81.3500 270° West 108 124 400  Level Orlando TRACON
Mon 11:47:00 AM 28.5333 -81.3667 270° West 109 125 1,200 990 Climbing Orlando TRACON
Mon 11:47:55 AM 28.5167 -81.3833 221° Southwest 104 120 2,000 893 Climbing Orlando TRACON
Mon 11:49:01 AM 28.5000 -81.4167 240° Southwest 105 121 3,000 905 Climbing Orlando TRACON
Mon 11:50:01 AM 28.4667 -81.4000 156° South 125 144 3,900 500 Climbing Orlando TRACON
Mon 11:51:01 AM 28.4500 -81.3667 120° Southeast 163 188 4,000 50 Climbing Orlando TRACON
Mon 11:52:01 AM 28.4500 -81.3167 90° East 161 185 4,000 -50 Level Orlando TRACON
Mon 11:53:01 AM 28.4500 -81.2667 90° East 171 197 3,900 -50 Descending Orlando TRACON
Mon 11:54:01 AM 28.4500 -81.2000 90° East 159 183 3,900 50 Level Orlando TRACON
Mon 11:55:02 AM 28.4500 -81.1667 90° East 155 178 4,000 298 Climbing Orlando TRACON
Mon 11:56:02 AM 28.4500 -81.1167 90° East 153 176 4,500 500 Climbing Orlando TRACON
Mon 11:57:02 AM 28.4500 -81.0667 90° East 164 189 5,000 579 Climbing Orlando TRACON
Mon 11:57:56 AM 28.4167 -81.0333 139° Southeast 154 177 5,600 526 Climbing Orlando TRACON
Mon 11:58:56 AM 28.3833 -81.0000 139° Southeast 153 176 6,000 190 Climbing Orlando TRACON
Mon 12:00:02 PM 28.3500 -80.9500 127° Southeast 168 193 6,000  Level Orlando TRACON
Mon 12:00:57 PM 28.3167 -80.9167 139° Southeast 169 194 6,000  Level Orlando TRACON
Mon 12:01:57 PM 28.2833 -80.8833 139° Southeast 174 200 6,000  Level Orlando TRACON
Mon 12:03:09 PM 28.2475 -80.8517 142° Southeast 170 196 6,000 -45 Level Miami Center
Mon 12:04:11 PM 28.2072 -80.8258 151° Southeast 167 192 5,900 -48 Descending Miami Center
Mon 12:05:13 PM 28.1606 -80.7942 149° Southeast 166 191 5,900  Level Miami Center
Mon 12:06:15 PM 28.1189 -80.7681 151° Southeast 166 191 5,900 48 Level Miami Center
Mon 12:07:17 PM 28.0767 -80.7403 150° Southeast 166 191 6,000 290 Climbing Miami Center
Mon 12:08:19 PM 28.0378 -80.7183 154° Southeast 153 176 6,500 432 Climbing Miami Center
Mon 12:09:22 PM 28.0006 -80.7150 175° South 141 162 6,900 432 Climbing Miami Center
Mon 12:10:24 PM 27.9619 -80.7186 185° South 136 157 7,400 435 Climbing Miami Center
Mon 12:11:26 PM 27.9231 -80.7211 183° South 136 157 7,800 242 Climbing Miami Center
Mon 12:12:28 PM 27.8822 -80.7236 183° South 137 158 7,900 48 Climbing Miami Center
Mon 12:13:30 PM 27.8358 -80.7264 183° South 154 177 7,900  Level Miami Center
Mon 12:14:32 PM 27.7878 -80.7258 179° South 163 188 7,900  Level Miami Center
Mon 12:15:34 PM 27.7397 -80.7242 178° South 164 189 7,900  Level Miami Center
Mon 12:16:36 PM 27.6953 -80.7233 179° South 164 189 7,900  Level Miami Center
Mon 12:17:38 PM 27.6469 -80.7222 179° South 164 189 7,900  Level Miami Center
Mon 12:18:40 PM 27.5983 -80.7206 178° South 165 190 7,900  Level Miami Center
Mon 12:19:42 PM 27.5483 -80.7194 179° South 166 191 7,900  Level Miami Center
Mon 12:20:44 PM 27.4989 -80.7178 178° South 167 192 7,900  Level Miami Center
Mon 12:21:46 PM 27.4517 -80.7161 178° South 171 197 7,900  Level Miami Center
Mon 12:22:48 PM 27.4022 -80.7153 179° South 171 197 7,900  Level Miami Center
Mon 12:23:50 PM 27.3517 -80.7136 178° South 171 197 7,900 -144 Level Miami Center
Mon 12:24:53 PM 27.3028 -80.7094 176° South 171 197 7,600 -432 Descending Miami Center
Mon 12:25:55 PM 27.2547 -80.7039 174° South 169 194 7,000 -629 Descending Miami Center
Mon 12:26:57 PM 27.2058 -80.6983 174° South 169 194 6,300 -532 Descending Miami Center
Mon 12:27:59 PM 27.1581 -80.6944 176° South 168 193 5,900 -194 Descending Miami Center
Mon 12:29:01 PM 27.1150 -80.6892 174° South 164 189 5,900  Level Miami Center
Mon 12:30:03 PM 27.0686 -80.6836 174° South 163 188 5,900 -97 Level Miami Center
Mon 12:31:05 PM 27.0214 -80.6772 173° South 163 188 5,700 -192 Descending Miami Center
Mon 12:32:08 PM 26.9728 -80.6711 174° South 165 190 5,500 -192 Descending Miami Center
Mon 12:33:10 PM 26.9250 -80.6642 173° South 166 191 5,300 -145 Descending Miami Center
Mon 12:34:12 PM 26.8767 -80.6600 176° South 166 191 5,200 -194 Descending Miami Center
Mon 12:35:14 PM 26.8283 -80.6544 174° South 167 192 4,900 -242 Descending Miami Center
Mon 12:36:16 PM 26.7800 -80.6492 174° South 166 191 4,700 -145 Descending Miami Center
Mon 12:37:18 PM 26.7353 -80.6375 167° South 165 190 4,600 -194 Descending Miami Center
Mon 12:38:20 PM 26.6906 -80.6242 165° South 167 192 4,300 -256 Descending Miami Center
Mon 12:39:15 PM 26.6486 -80.6131 167° South 165 190 4,100 -195 Descending Miami Center
Mon 12:40:23 PM 26.5975 -80.5950 162° South 164 189 3,900 -137 Descending Miami Center
Mon 12:41:26 PM 26.5517 -80.5800 164° South 165 190 3,800 -148 Descending Miami Center
Mon 12:42:25 PM 26.5094 -80.5647 162° South 161 185 3,600 -242 Descending Miami Center
Mon 12:43:30 PM 26.4636 -80.5469 161° South 163 188 3,300 -236 Descending Miami Center
Mon 12:44:32 PM 26.4214 -80.5331 164° South 160 184 3,100 -153 Descending Miami Center
Mon 12:45:28 PM 26.3797 -80.5264 172° South 157 181 3,000 -51 Descending Miami Center
Mon 12:46:29 PM 26.3364 -80.5183 171° South 151 174 3,000 -47 Level Miami Center
Mon 12:47:36 PM 26.2928 -80.5125 173° South 146 168 2,900 -46 Descending Miami Center
Mon 12:48:40 PM 26.2519 -80.5047 170° South 146 168 2,900 48 Level Miami Center
Mon 12:49:42 PM 26.2111 -80.4978 171° South 146 168 3,000 53 Climbing Miami Center
Mon 12:50:34 PM 26.1725 -80.4936 174° South 149 171 3,000 -97 Level Miami Center
Mon 12:50:44 PM 26.1697 -80.4928 165° South 146 168 2,900  Descending Miami Center
Mon 12:51:35 PM 26.1308 -80.4881 174° South 151 174 3,000 97 Climbing Miami Center
Mon 12:51:46 PM 26.1278 -80.4867 158° South 148 170 3,000  Level Miami Center
Mon 12:52:36 PM 26.0872 -80.4822 174° South 153 176 3,000  Level Miami Center
Mon 12:52:48 PM 26.0856 -80.4808 143° Southeast 149 171 3,000  Level Miami Center
Mon 12:53:37 PM 26.0478 -80.4792 178° South 144 166 3,000  Level Miami Center
Mon 12:53:50 PM 26.0456 -80.4797 193° South 148 170 3,000  Level Miami Center
Mon 12:54:52 PM 26.0058 -80.4858 188° South 147 169 3,000 -209 Level Miami Center
Mon 12:55:45 PM 25.9608 -80.4953 191° South 161 185 2,600 -385 Descending Miami Center
Mon 12:56:41 PM 25.9225 -80.5039 191° South 151 174 2,300 -338 Descending Miami Center
Mon 12:56:56 PM 25.9147 -80.5039 180° South 151 174 2,200 -273 Descending Miami Center
Mon 12:57:47 PM 25.8742 -80.5069 184° South 151 174 2,000 -194 Descending Miami Center
Mon 12:57:58 PM 25.8725 -80.5081 211° Southwest 151 174 2,000 -107 Level Miami Center
Mon 12:58:43 PM 25.8361 -80.5111 184° South 148 170 1,900 -194 Descending Miami Center
Mon 12:59:00 PM 25.8317 -80.5117 186° South 150 173 1,800 -358 Descending Miami Center
Mon 12:59:50 PM 25.7917 -80.5167 186° South 146 168 1,500 -290 Descending Miami Center
Mon 01:00:02 PM 25.7911 -80.5161 138° Southeast 150 173 1,500 -197 Level Miami Center
Mon 01:00:51 PM 25.7519 -80.5158 180° South 147 169 1,300 -197 Descending Miami Center
Mon 01:01:03 PM 25.7489 -80.5150 166° South 150 173 1,300  Level Miami Center
Mon 01:01:46 PM 25.7147 -80.5083 170° South 142 163 1,300 -97 Level Miami Center
Mon 01:02:05 PM 25.7042 -80.4992 142° Southeast 142 163 1,200 -295 Descending Miami Center
Mon 01:02:47 PM 25.6875 -80.4761 129° Southeast 151 174 1,000 -290 Descending Miami Center
Mon 01:03:07 PM 25.6800 -80.4617 120° Southeast 147 169 900  Descending Miami Center
Mon 01:03:42 PM 25.6753 -80.4406 104° East 126 145 1,000 97 Climbing Miami Center
Mon 01:04:09 PM 25.6778 -80.4225 81° East 132 152 1,000  Level Miami Center
Mon 01:04:55 PM 25.6803 -80.3947 84° East 122 140 1,000  Level Miami Center
Mon 01:05:11 PM 25.6817 -80.3847 81° East 126 145 1,000 245 Level Miami Center
Mon 01:05:44 PM 25.6822 -80.3647 88° East 118 136 1,200 97 Climbing Miami Center
Mon 01:06:13 PM 25.6714 -80.3581 151° Southeast 117 135 1,100 -197 Descending Miami Center
Mon 01:06:45 PM 25.6528 -80.3647 198° South 117 135 1,000 -290 Descending Miami Center
Mon 01:07:15 PM 25.6472 -80.3786 246° West 114 131 800 -716 Descending Miami Center
Mon 01:07:52 PM 25.6439 -80.4081 263° West 123 142 200 -677 Descending Miami Center
Mon 01:08:17 PM 25.6442 -80.4147 273° West 120 138 100 -240 Descending Miami Center

Login

Don't have an account? Register now (free) for customized features, flight alerts, and more!